sensor_id;sensor_type;location;lat;lon;timestamp;temperature;humidity
67817;DHT22;54614;47.576;7.524;2022-10-22T00:00:27;26.20;60.50
67817;DHT22;54614;47.576;7.524;2022-10-22T00:02:52;26.20;60.60
67817;DHT22;54614;47.576;7.524;2022-10-22T00:05:18;26.30;60.60
67817;DHT22;54614;47.576;7.524;2022-10-22T00:07:44;26.30;60.50
67817;DHT22;54614;47.576;7.524;2022-10-22T00:10:10;26.30;60.40
67817;DHT22;54614;47.576;7.524;2022-10-22T00:12:36;26.30;60.40
67817;DHT22;54614;47.576;7.524;2022-10-22T00:15:04;26.40;60.40
67817;DHT22;54614;47.576;7.524;2022-10-22T00:17:31;26.30;60.40
67817;DHT22;54614;47.576;7.524;2022-10-22T00:19:57;26.30;60.40
67817;DHT22;54614;47.576;7.524;2022-10-22T00:22:23;26.30;60.50
67817;DHT22;54614;47.576;7.524;2022-10-22T00:24:48;26.30;60.50
67817;DHT22;54614;47.576;7.524;2022-10-22T00:27:14;26.30;60.40
67817;DHT22;54614;47.576;7.524;2022-10-22T00:29:40;26.30;60.30
67817;DHT22;54614;47.576;7.524;2022-10-22T00:32:06;26.30;60.50
67817;DHT22;54614;47.576;7.524;2022-10-22T00:34:32;26.30;60.50
67817;DHT22;54614;47.576;7.524;2022-10-22T00:36:58;26.30;60.50
67817;DHT22;54614;47.576;7.524;2022-10-22T00:39:26;26.30;60.50
67817;DHT22;54614;47.576;7.524;2022-10-22T00:41:54;26.20;60.50
67817;DHT22;54614;47.576;7.524;2022-10-22T00:45:04;26.20;60.60
67817;DHT22;54614;47.576;7.524;2022-10-22T00:47:39;26.30;60.60
67817;DHT22;54614;47.576;7.524;2022-10-22T00:50:12;26.30;60.60
67817;DHT22;54614;47.576;7.524;2022-10-22T00:52:41;26.20;60.50
67817;DHT22;54614;47.576;7.524;2022-10-22T00:55:07;26.30;60.50
67817;DHT22;54614;47.576;7.524;2022-10-22T00:57:35;26.30;60.60
67817;DHT22;54614;47.576;7.524;2022-10-22T01:00:02;26.20;60.50
67817;DHT22;54614;47.576;7.524;2022-10-22T01:02:29;26.30;60.50
67817;DHT22;54614;47.576;7.524;2022-10-22T01:04:55;26.20;60.50
67817;DHT22;54614;47.576;7.524;2022-10-22T01:07:23;26.40;60.60
67817;DHT22;54614;47.576;7.524;2022-10-22T01:18:02;26.20;60.50
67817;DHT22;54614;47.576;7.524;2022-10-22T01:29:42;26.20;60.60
67817;DHT22;54614;47.576;7.524;2022-10-22T01:32:17;26.20;60.50
67817;DHT22;54614;47.576;7.524;2022-10-22T01:34:56;26.20;60.50
67817;DHT22;54614;47.576;7.524;2022-10-22T01:37:30;26.20;60.50
67817;DHT22;54614;47.576;7.524;2022-10-22T01:40:00;26.20;60.50
67817;DHT22;54614;47.576;7.524;2022-10-22T01:42:26;26.30;60.50
67817;DHT22;54614;47.576;7.524;2022-10-22T01:44:52;26.20;60.40
67817;DHT22;54614;47.576;7.524;2022-10-22T01:47:46;26.30;60.40
67817;DHT22;54614;47.576;7.524;2022-10-22T01:53:09;26.20;60.40
67817;DHT22;54614;47.576;7.524;2022-10-22T01:56:08;26.10;60.50
67817;DHT22;54614;47.576;7.524;2022-10-22T01:59:02;26.20;60.50
67817;DHT22;54614;47.576;7.524;2022-10-22T02:04:34;26.20;60.50
67817;DHT22;54614;47.576;7.524;2022-10-22T02:07:10;26.20;60.40
67817;DHT22;54614;47.576;7.524;2022-10-22T02:09:41;26.20;60.40
67817;DHT22;54614;47.576;7.524;2022-10-22T02:12:10;26.20;60.50
67817;DHT22;54614;47.576;7.524;2022-10-22T02:14:41;26.10;60.50
67817;DHT22;54614;47.576;7.524;2022-10-22T02:17:12;26.20;60.50
67817;DHT22;54614;47.576;7.524;2022-10-22T02:19:58;26.20;60.60
67817;DHT22;54614;47.576;7.524;2022-10-22T02:22:28;26.10;60.50
67817;DHT22;54614;47.576;7.524;2022-10-22T02:24:55;26.20;60.60
67817;DHT22;54614;47.576;7.524;2022-10-22T02:27:31;26.20;60.50
67817;DHT22;54614;47.576;7.524;2022-10-22T02:30:08;26.20;60.50
67817;DHT22;54614;47.576;7.524;2022-10-22T02:32:52;26.10;60.50
67817;DHT22;54614;47.576;7.524;2022-10-22T02:35:29;26.10;60.50
67817;DHT22;54614;47.576;7.524;2022-10-22T02:37:57;26.20;60.50
67817;DHT22;54614;47.576;7.524;2022-10-22T02:40:25;26.20;60.50
67817;DHT22;54614;47.576;7.524;2022-10-22T02:42:52;26.20;60.50
67817;DHT22;54614;47.576;7.524;2022-10-22T02:45:19;26.20;60.40
67817;DHT22;54614;47.576;7.524;2022-10-22T02:47:46;26.20;60.50
67817;DHT22;54614;47.576;7.524;2022-10-22T02:50:12;26.20;60.40
67817;DHT22;54614;47.576;7.524;2022-10-22T02:52:38;26.20;60.40
67817;DHT22;54614;47.576;7.524;2022-10-22T02:55:04;26.20;60.40
67817;DHT22;54614;47.576;7.524;2022-10-22T02:57:31;26.20;60.50
67817;DHT22;54614;47.576;7.524;2022-10-22T02:59:58;26.20;60.40
67817;DHT22;54614;47.576;7.524;2022-10-22T03:02:23;26.20;60.50
67817;DHT22;54614;47.576;7.524;2022-10-22T03:04:49;26.20;60.40
67817;DHT22;54614;47.576;7.524;2022-10-22T03:07:15;26.20;60.40
67817;DHT22;54614;47.576;7.524;2022-10-22T03:09:41;26.20;60.40
67817;DHT22;54614;47.576;7.524;2022-10-22T03:12:07;26.20;60.50
67817;DHT22;54614;47.576;7.524;2022-10-22T03:14:34;26.20;60.50
67817;DHT22;54614;47.576;7.524;2022-10-22T03:17:00;26.20;60.40
67817;DHT22;54614;47.576;7.524;2022-10-22T03:19:26;26.20;60.50
67817;DHT22;54614;47.576;7.524;2022-10-22T03:24:33;26.10;60.50
67817;DHT22;54614;47.576;7.524;2022-10-22T03:27:02;26.10;60.50
67817;DHT22;54614;47.576;7.524;2022-10-22T03:29:30;26.20;60.60
67817;DHT22;54614;47.576;7.524;2022-10-22T03:32:00;26.20;60.50
67817;DHT22;54614;47.576;7.524;2022-10-22T03:34:26;26.10;60.60
67817;DHT22;54614;47.576;7.524;2022-10-22T03:36:52;26.10;60.50
67817;DHT22;54614;47.576;7.524;2022-10-22T03:39:19;26.20;60.60
67817;DHT22;54614;47.576;7.524;2022-10-22T03:41:47;26.10;60.50
67817;DHT22;54614;47.576;7.524;2022-10-22T03:44:15;26.10;60.60
67817;DHT22;54614;47.576;7.524;2022-10-22T03:46:43;26.10;60.50
67817;DHT22;54614;47.576;7.524;2022-10-22T03:49:08;26.20;60.50
67817;DHT22;54614;47.576;7.524;2022-10-22T03:51:34;26.30;61.10
67817;DHT22;54614;47.576;7.524;2022-10-22T03:54:02;26.20;60.80
67817;DHT22;54614;47.576;7.524;2022-10-22T03:56:28;26.10;60.90
67817;DHT22;54614;47.576;7.524;2022-10-22T03:58:59;26.10;60.80
67817;DHT22;54614;47.576;7.524;2022-10-22T04:01:26;26.10;60.70
67817;DHT22;54614;47.576;7.524;2022-10-22T04:03:54;26.10;60.70
67817;DHT22;54614;47.576;7.524;2022-10-22T04:06:21;26.10;61.40
67817;DHT22;54614;47.576;7.524;2022-10-22T04:08:47;26.10;60.70
67817;DHT22;54614;47.576;7.524;2022-10-22T04:11:14;26.10;60.70
67817;DHT22;54614;47.576;7.524;2022-10-22T04:13:41;26.10;60.70
67817;DHT22;54614;47.576;7.524;2022-10-22T04:18:41;26.10;60.70
67817;DHT22;54614;47.576;7.524;2022-10-22T04:21:10;26.10;60.60
67817;DHT22;54614;47.576;7.524;2022-10-22T04:23:36;26.10;61.30
67817;DHT22;54614;47.576;7.524;2022-10-22T04:26:06;26.10;60.60
67817;DHT22;54614;47.576;7.524;2022-10-22T04:28:33;26.10;60.60
67817;DHT22;54614;47.576;7.524;2022-10-22T04:30:59;26.20;60.50
67817;DHT22;54614;47.576;7.524;2022-10-22T04:33:25;26.10;60.40
67817;DHT22;54614;47.576;7.524;2022-10-22T04:35:51;26.10;60.40
67817;DHT22;54614;47.576;7.524;2022-10-22T04:38:17;26.10;60.50
67817;DHT22;54614;47.576;7.524;2022-10-22T04:40:43;26.10;60.50
67817;DHT22;54614;47.576;7.524;2022-10-22T04:43:09;26.20;60.50
67817;DHT22;54614;47.576;7.524;2022-10-22T04:45:35;26.10;60.60
67817;DHT22;54614;47.576;7.524;2022-10-22T04:48:01;26.10;60.50
67817;DHT22;54614;47.576;7.524;2022-10-22T04:50:27;26.10;60.50
67817;DHT22;54614;47.576;7.524;2022-10-22T04:52:53;26.10;60.50
67817;DHT22;54614;47.576;7.524;2022-10-22T04:55:19;26.10;60.50
67817;DHT22;54614;47.576;7.524;2022-10-22T04:57:45;26.10;60.40
67817;DHT22;54614;47.576;7.524;2022-10-22T05:00:11;26.10;60.30
67817;DHT22;54614;47.576;7.524;2022-10-22T05:02:37;26.10;60.40
67817;DHT22;54614;47.576;7.524;2022-10-22T05:05:03;26.10;60.40
67817;DHT22;54614;47.576;7.524;2022-10-22T05:07:29;26.10;60.30
67817;DHT22;54614;47.576;7.524;2022-10-22T05:09:54;26.10;60.30
67817;DHT22;54614;47.576;7.524;2022-10-22T05:12:20;26.10;60.40
67817;DHT22;54614;47.576;7.524;2022-10-22T05:14:46;26.10;60.40
67817;DHT22;54614;47.576;7.524;2022-10-22T05:17:12;26.10;60.40
67817;DHT22;54614;47.576;7.524;2022-10-22T05:19:37;26.10;60.50
67817;DHT22;54614;47.576;7.524;2022-10-22T05:22:04;26.10;60.50
67817;DHT22;54614;47.576;7.524;2022-10-22T05:24:31;26.10;60.40
67817;DHT22;54614;47.576;7.524;2022-10-22T05:26:59;26.10;60.40
67817;DHT22;54614;47.576;7.524;2022-10-22T05:29:26;26.10;60.40
67817;DHT22;54614;47.576;7.524;2022-10-22T05:31:52;26.10;60.30
67817;DHT22;54614;47.576;7.524;2022-10-22T05:34:18;26.10;60.20
67817;DHT22;54614;47.576;7.524;2022-10-22T05:36:44;26.10;60.30
67817;DHT22;54614;47.576;7.524;2022-10-22T05:39:11;26.10;60.30
67817;DHT22;54614;47.576;7.524;2022-10-22T05:41:37;26.10;60.30
67817;DHT22;54614;47.576;7.524;2022-10-22T05:44:04;26.10;60.30
67817;DHT22;54614;47.576;7.524;2022-10-22T05:46:33;26.10;60.20
67817;DHT22;54614;47.576;7.524;2022-10-22T05:49:04;26.10;60.40
67817;DHT22;54614;47.576;7.524;2022-10-22T05:51:33;26.10;61.10
67817;DHT22;54614;47.576;7.524;2022-10-22T05:54:03;26.10;60.30
67817;DHT22;54614;47.576;7.524;2022-10-22T05:56:31;26.10;60.30
67817;DHT22;54614;47.576;7.524;2022-10-22T05:58:57;26.10;60.30
67817;DHT22;54614;47.576;7.524;2022-10-22T06:01:31;26.10;60.30
67817;DHT22;54614;47.576;7.524;2022-10-22T06:04:02;26.10;60.30
67817;DHT22;54614;47.576;7.524;2022-10-22T06:06:43;26.10;60.30
67817;DHT22;54614;47.576;7.524;2022-10-22T06:09:23;26.00;60.30
67817;DHT22;54614;47.576;7.524;2022-10-22T06:11:51;26.10;60.40
67817;DHT22;54614;47.576;7.524;2022-10-22T06:14:18;26.10;60.50
67817;DHT22;54614;47.576;7.524;2022-10-22T06:16:44;26.10;60.30
67817;DHT22;54614;47.576;7.524;2022-10-22T06:19:11;26.10;60.50
67817;DHT22;54614;47.576;7.524;2022-10-22T06:21:39;26.10;60.50
67817;DHT22;54614;47.576;7.524;2022-10-22T06:24:06;26.20;60.70
67817;DHT22;54614;47.576;7.524;2022-10-22T06:26:32;26.20;60.60
67817;DHT22;54614;47.576;7.524;2022-10-22T06:28:58;26.20;60.80
67817;DHT22;54614;47.576;7.524;2022-10-22T06:31:25;26.10;61.10
67817;DHT22;54614;47.576;7.524;2022-10-22T06:33:52;26.00;61.30
67817;DHT22;54614;47.576;7.524;2022-10-22T06:36:20;26.10;61.30
67817;DHT22;54614;47.576;7.524;2022-10-22T06:38:50;26.10;61.20
67817;DHT22;54614;47.576;7.524;2022-10-22T06:41:18;26.10;61.10
67817;DHT22;54614;47.576;7.524;2022-10-22T06:43:44;26.20;61.10
67817;DHT22;54614;47.576;7.524;2022-10-22T06:46:12;26.30;60.80
67817;DHT22;54614;47.576;7.524;2022-10-22T06:48:51;26.30;60.80
67817;DHT22;54614;47.576;7.524;2022-10-22T06:51:25;26.30;60.40
67817;DHT22;54614;47.576;7.524;2022-10-22T06:53:53;26.20;60.50
67817;DHT22;54614;47.576;7.524;2022-10-22T06:56:21;26.30;61.30
67817;DHT22;54614;47.576;7.524;2022-10-22T06:58:50;26.20;61.30
67817;DHT22;54614;47.576;7.524;2022-10-22T07:01:23;26.40;60.90
67817;DHT22;54614;47.576;7.524;2022-10-22T07:03:52;26.40;60.70
67817;DHT22;54614;47.576;7.524;2022-10-22T07:06:19;26.40;60.70
67817;DHT22;54614;47.576;7.524;2022-10-22T07:08:47;26.40;60.50
67817;DHT22;54614;47.576;7.524;2022-10-22T07:11:18;26.50;60.50
67817;DHT22;54614;47.576;7.524;2022-10-22T07:13:46;26.40;60.90
67817;DHT22;54614;47.576;7.524;2022-10-22T07:16:13;26.40;60.70
67817;DHT22;54614;47.576;7.524;2022-10-22T07:18:40;26.40;60.70
67817;DHT22;54614;47.576;7.524;2022-10-22T07:21:09;26.40;60.70
67817;DHT22;54614;47.576;7.524;2022-10-22T07:23:36;26.40;60.50
67817;DHT22;54614;47.576;7.524;2022-10-22T07:26:03;26.40;60.50
67817;DHT22;54614;47.576;7.524;2022-10-22T07:28:34;26.40;60.50
67817;DHT22;54614;47.576;7.524;2022-10-22T07:31:02;26.50;60.50
67817;DHT22;54614;47.576;7.524;2022-10-22T07:33:28;26.50;60.30
67817;DHT22;54614;47.576;7.524;2022-10-22T07:36:03;26.60;60.40
67817;DHT22;54614;47.576;7.524;2022-10-22T07:38:31;26.50;60.00
67817;DHT22;54614;47.576;7.524;2022-10-22T07:40:57;26.50;60.10
67817;DHT22;54614;47.576;7.524;2022-10-22T07:43:24;26.60;60.00
67817;DHT22;54614;47.576;7.524;2022-10-22T07:45:50;26.60;63.00
67817;DHT22;54614;47.576;7.524;2022-10-22T07:48:16;26.60;64.10
67817;DHT22;54614;47.576;7.524;2022-10-22T07:50:42;26.70;62.50
67817;DHT22;54614;47.576;7.524;2022-10-22T07:53:08;26.80;61.70
67817;DHT22;54614;47.576;7.524;2022-10-22T07:55:34;26.90;60.90
67817;DHT22;54614;47.576;7.524;2022-10-22T07:58:00;26.90;60.60
67817;DHT22;54614;47.576;7.524;2022-10-22T08:00:26;26.90;63.10
67817;DHT22;54614;47.576;7.524;2022-10-22T08:02:52;26.80;61.70
67817;DHT22;54614;47.576;7.524;2022-10-22T08:05:18;26.90;61.10
67817;DHT22;54614;47.576;7.524;2022-10-22T08:07:44;27.00;60.60
67817;DHT22;54614;47.576;7.524;2022-10-22T08:10:10;27.00;60.30
67817;DHT22;54614;47.576;7.524;2022-10-22T08:12:37;27.00;60.10
67817;DHT22;54614;47.576;7.524;2022-10-22T08:15:04;26.80;65.20
67817;DHT22;54614;47.576;7.524;2022-10-22T08:17:30;26.90;63.90
67817;DHT22;54614;47.576;7.524;2022-10-22T08:19:56;27.00;63.10
67817;DHT22;54614;47.576;7.524;2022-10-22T08:22:22;27.10;62.60
67817;DHT22;54614;47.576;7.524;2022-10-22T08:24:47;27.10;62.50
67817;DHT22;54614;47.576;7.524;2022-10-22T08:27:14;27.20;61.90
67817;DHT22;54614;47.576;7.524;2022-10-22T08:29:40;27.20;61.60
67817;DHT22;54614;47.576;7.524;2022-10-22T08:32:06;27.10;61.60
67817;DHT22;54614;47.576;7.524;2022-10-22T08:34:32;27.20;61.50
67817;DHT22;54614;47.576;7.524;2022-10-22T08:36:58;27.20;61.20
67817;DHT22;54614;47.576;7.524;2022-10-22T08:39:23;27.20;60.90
67817;DHT22;54614;47.576;7.524;2022-10-22T08:50:45;27.30;60.50
67817;DHT22;54614;47.576;7.524;2022-10-22T08:56:26;27.30;60.20
67817;DHT22;54614;47.576;7.524;2022-10-22T09:01:50;27.50;60.10
67817;DHT22;54614;47.576;7.524;2022-10-22T09:04:26;27.30;60.90
67817;DHT22;54614;47.576;7.524;2022-10-22T09:06:58;27.20;60.90
67817;DHT22;54614;47.576;7.524;2022-10-22T09:09:37;27.30;60.70
67817;DHT22;54614;47.576;7.524;2022-10-22T09:12:13;27.20;60.90
67817;DHT22;54614;47.576;7.524;2022-10-22T09:14:41;27.00;61.80
67817;DHT22;54614;47.576;7.524;2022-10-22T09:17:27;27.00;62.10
67817;DHT22;54614;47.576;7.524;2022-10-22T09:20:15;27.10;61.50
67817;DHT22;54614;47.576;7.524;2022-10-22T09:26:11;27.30;61.10
67817;DHT22;54614;47.576;7.524;2022-10-22T09:28:39;27.40;61.00
67817;DHT22;54614;47.576;7.524;2022-10-22T09:31:11;27.20;61.50
67817;DHT22;54614;47.576;7.524;2022-10-22T09:33:39;27.20;62.00
67817;DHT22;54614;47.576;7.524;2022-10-22T09:36:06;27.20;61.70
67817;DHT22;54614;47.576;7.524;2022-10-22T09:38:45;27.20;62.10
67817;DHT22;54614;47.576;7.524;2022-10-22T09:41:13;27.10;62.00
67817;DHT22;54614;47.576;7.524;2022-10-22T09:43:39;27.20;62.10
67817;DHT22;54614;47.576;7.524;2022-10-22T09:46:10;27.20;62.10
67817;DHT22;54614;47.576;7.524;2022-10-22T09:49:04;27.00;62.20
67817;DHT22;54614;47.576;7.524;2022-10-22T09:51:54;26.90;62.60
67817;DHT22;54614;47.576;7.524;2022-10-22T09:54:25;26.90;62.40
67817;DHT22;54614;47.576;7.524;2022-10-22T09:57:15;26.90;62.50
67817;DHT22;54614;47.576;7.524;2022-10-22T09:59:48;26.90;62.70
67817;DHT22;54614;47.576;7.524;2022-10-22T10:02:26;26.90;62.70
67817;DHT22;54614;47.576;7.524;2022-10-22T10:04:55;26.90;62.90
67817;DHT22;54614;47.576;7.524;2022-10-22T10:07:32;26.90;62.80
67817;DHT22;54614;47.576;7.524;2022-10-22T10:10:01;27.20;62.60
67817;DHT22;54614;47.576;7.524;2022-10-22T10:13:02;27.20;61.90
67817;DHT22;54614;47.576;7.524;2022-10-22T10:15:48;27.40;61.20
67817;DHT22;54614;47.576;7.524;2022-10-22T10:21:46;27.60;61.20
67817;DHT22;54614;47.576;7.524;2022-10-22T10:30:21;28.00;60.30
67817;DHT22;54614;47.576;7.524;2022-10-22T10:33:27;28.10;60.20
67817;DHT22;54614;47.576;7.524;2022-10-22T10:38:47;28.10;60.00
67817;DHT22;54614;47.576;7.524;2022-10-22T10:56:54;28.10;59.40
67817;DHT22;54614;47.576;7.524;2022-10-22T11:02:26;28.10;59.60
67817;DHT22;54614;47.576;7.524;2022-10-22T11:05:31;28.10;59.60
67817;DHT22;54614;47.576;7.524;2022-10-22T11:11:33;28.20;59.60
67817;DHT22;54614;47.576;7.524;2022-10-22T11:17:05;28.20;59.80
67817;DHT22;54614;47.576;7.524;2022-10-22T11:23:04;28.20;59.80
67817;DHT22;54614;47.576;7.524;2022-10-22T11:25:39;28.30;59.60
67817;DHT22;54614;47.576;7.524;2022-10-22T11:28:25;28.30;59.60
67817;DHT22;54614;47.576;7.524;2022-10-22T11:31:17;28.30;59.60
67817;DHT22;54614;47.576;7.524;2022-10-22T11:34:09;28.30;59.50
67817;DHT22;54614;47.576;7.524;2022-10-22T11:36:43;28.20;59.30
67817;DHT22;54614;47.576;7.524;2022-10-22T11:39:33;28.30;59.10
67817;DHT22;54614;47.576;7.524;2022-10-22T11:42:19;28.40;59.10
67817;DHT22;54614;47.576;7.524;2022-10-22T11:45:06;28.40;59.10
67817;DHT22;54614;47.576;7.524;2022-10-22T11:50:50;28.40;58.90
67817;DHT22;54614;47.576;7.524;2022-10-22T11:53:33;28.40;59.50
67817;DHT22;54614;47.576;7.524;2022-10-22T12:11:22;28.40;59.00
67817;DHT22;54614;47.576;7.524;2022-10-22T12:14:11;28.40;59.00
67817;DHT22;54614;47.576;7.524;2022-10-22T12:17:12;28.40;59.00
67817;DHT22;54614;47.576;7.524;2022-10-22T12:19:48;28.50;58.80
67817;DHT22;54614;47.576;7.524;2022-10-22T12:22:32;28.50;58.70
67817;DHT22;54614;47.576;7.524;2022-10-22T12:25:11;28.40;58.90
67817;DHT22;54614;47.576;7.524;2022-10-22T12:27:42;28.40;58.70
67817;DHT22;54614;47.576;7.524;2022-10-22T12:30:23;28.40;58.90
67817;DHT22;54614;47.576;7.524;2022-10-22T12:32:57;28.30;58.90
67817;DHT22;54614;47.576;7.524;2022-10-22T12:35:27;28.40;58.70
67817;DHT22;54614;47.576;7.524;2022-10-22T12:37:59;28.40;58.60
67817;DHT22;54614;47.576;7.524;2022-10-22T12:40:28;28.20;59.50
67817;DHT22;54614;47.576;7.524;2022-10-22T12:43:06;28.00;59.80
67817;DHT22;54614;47.576;7.524;2022-10-22T12:45:37;28.00;60.00
67817;DHT22;54614;47.576;7.524;2022-10-22T12:48:27;28.10;59.70
67817;DHT22;54614;47.576;7.524;2022-10-22T12:50:58;28.10;59.60
67817;DHT22;54614;47.576;7.524;2022-10-22T12:56:02;28.30;59.30
67817;DHT22;54614;47.576;7.524;2022-10-22T12:58:38;28.30;59.30
67817;DHT22;54614;47.576;7.524;2022-10-22T13:01:10;28.10;59.40
67817;DHT22;54614;47.576;7.524;2022-10-22T13:03:43;28.20;59.30
67817;DHT22;54614;47.576;7.524;2022-10-22T13:08:44;28.40;58.90
67817;DHT22;54614;47.576;7.524;2022-10-22T13:11:20;28.40;58.70
67817;DHT22;54614;47.576;7.524;2022-10-22T13:13:46;28.40;58.60
67817;DHT22;54614;47.576;7.524;2022-10-22T13:18:39;28.40;58.50
67817;DHT22;54614;47.576;7.524;2022-10-22T13:21:21;28.20;60.40
67817;DHT22;54614;47.576;7.524;2022-10-22T13:23:58;27.70;61.80
67817;DHT22;54614;47.576;7.524;2022-10-22T13:26:32;27.70;62.40
67817;DHT22;54614;47.576;7.524;2022-10-22T13:29:02;27.60;62.60
67817;DHT22;54614;47.576;7.524;2022-10-22T13:31:35;27.90;62.60
67817;DHT22;54614;47.576;7.524;2022-10-22T13:34:05;27.90;62.30
67817;DHT22;54614;47.576;7.524;2022-10-22T13:36:34;27.90;62.40
67817;DHT22;54614;47.576;7.524;2022-10-22T13:39:03;27.80;62.20
67817;DHT22;54614;47.576;7.524;2022-10-22T13:41:37;27.70;62.50
67817;DHT22;54614;47.576;7.524;2022-10-22T13:44:03;27.80;62.20
67817;DHT22;54614;47.576;7.524;2022-10-22T13:46:30;28.10;61.50
67817;DHT22;54614;47.576;7.524;2022-10-22T13:48:56;28.10;61.40
67817;DHT22;54614;47.576;7.524;2022-10-22T13:51:28;27.90;61.70
67817;DHT22;54614;47.576;7.524;2022-10-22T13:53:59;27.80;62.10
67817;DHT22;54614;47.576;7.524;2022-10-22T13:56:26;27.80;61.90
67817;DHT22;54614;47.576;7.524;2022-10-22T13:58:52;27.90;59.20
67817;DHT22;54614;47.576;7.524;2022-10-22T14:01:24;27.90;58.00
67817;DHT22;54614;47.576;7.524;2022-10-22T14:03:53;27.90;57.40
67817;DHT22;54614;47.576;7.524;2022-10-22T14:06:23;27.70;56.60
67817;DHT22;54614;47.576;7.524;2022-10-22T14:09:04;27.60;56.70
67817;DHT22;54614;47.576;7.524;2022-10-22T14:11:35;27.60;56.70
67817;DHT22;54614;47.576;7.524;2022-10-22T14:14:01;27.60;56.40
67817;DHT22;54614;47.576;7.524;2022-10-22T14:16:30;27.70;56.00
67817;DHT22;54614;47.576;7.524;2022-10-22T14:18:57;27.60;55.30
67817;DHT22;54614;47.576;7.524;2022-10-22T14:21:32;27.40;55.20
67817;DHT22;54614;47.576;7.524;2022-10-22T14:24:01;27.30;55.50
67817;DHT22;54614;47.576;7.524;2022-10-22T14:26:29;27.30;55.30
67817;DHT22;54614;47.576;7.524;2022-10-22T14:28:59;27.20;55.60
67817;DHT22;54614;47.576;7.524;2022-10-22T14:31:26;27.30;55.40
67817;DHT22;54614;47.576;7.524;2022-10-22T14:33:52;27.20;55.00
67817;DHT22;54614;47.576;7.524;2022-10-22T14:36:18;27.20;55.90
67817;DHT22;54614;47.576;7.524;2022-10-22T14:38:47;27.20;55.40
67817;DHT22;54614;47.576;7.524;2022-10-22T14:41:22;27.20;55.60
67817;DHT22;54614;47.576;7.524;2022-10-22T14:43:51;27.30;56.20
67817;DHT22;54614;47.576;7.524;2022-10-22T14:46:19;27.20;55.40
67817;DHT22;54614;47.576;7.524;2022-10-22T14:48:44;27.20;55.60
67817;DHT22;54614;47.576;7.524;2022-10-22T14:51:16;27.20;55.90
67817;DHT22;54614;47.576;7.524;2022-10-22T14:53:43;27.20;55.70
67817;DHT22;54614;47.576;7.524;2022-10-22T14:56:12;27.20;55.80
67817;DHT22;54614;47.576;7.524;2022-10-22T14:58:40;27.20;56.00
67817;DHT22;54614;47.576;7.524;2022-10-22T15:01:07;27.30;56.30
67817;DHT22;54614;47.576;7.524;2022-10-22T15:03:35;27.30;56.60
67817;DHT22;54614;47.576;7.524;2022-10-22T15:06:04;27.40;56.50
67817;DHT22;54614;47.576;7.524;2022-10-22T15:08:33;27.40;56.00
67817;DHT22;54614;47.576;7.524;2022-10-22T15:11:05;27.30;56.00
67817;DHT22;54614;47.576;7.524;2022-10-22T15:13:33;27.40;55.90
67817;DHT22;54614;47.576;7.524;2022-10-22T15:16:00;27.50;56.60
67817;DHT22;54614;47.576;7.524;2022-10-22T15:18:29;27.30;55.80
67817;DHT22;54614;47.576;7.524;2022-10-22T15:21:00;27.20;55.90
67817;DHT22;54614;47.576;7.524;2022-10-22T15:23:29;27.00;56.70
67817;DHT22;54614;47.576;7.524;2022-10-22T15:25:56;26.90;56.60
67817;DHT22;54614;47.576;7.524;2022-10-22T15:28:23;26.90;56.90
67817;DHT22;54614;47.576;7.524;2022-10-22T15:30:54;26.90;56.70
67817;DHT22;54614;47.576;7.524;2022-10-22T15:33:22;26.90;56.70
67817;DHT22;54614;47.576;7.524;2022-10-22T15:35:48;26.90;57.00
67817;DHT22;54614;47.576;7.524;2022-10-22T15:38:14;26.80;57.10
67817;DHT22;54614;47.576;7.524;2022-10-22T15:40:40;26.80;57.00
67817;DHT22;54614;47.576;7.524;2022-10-22T15:43:06;26.70;57.10
67817;DHT22;54614;47.576;7.524;2022-10-22T15:45:32;26.60;57.40
67817;DHT22;54614;47.576;7.524;2022-10-22T15:47:58;26.60;57.40
67817;DHT22;54614;47.576;7.524;2022-10-22T15:50:24;26.60;57.40
67817;DHT22;54614;47.576;7.524;2022-10-22T15:52:50;26.60;57.60
67817;DHT22;54614;47.576;7.524;2022-10-22T15:55:15;26.70;57.80
67817;DHT22;54614;47.576;7.524;2022-10-22T15:57:41;26.60;57.60
67817;DHT22;54614;47.576;7.524;2022-10-22T16:00:08;26.70;57.80
67817;DHT22;54614;47.576;7.524;2022-10-22T16:02:34;26.80;57.90
67817;DHT22;54614;47.576;7.524;2022-10-22T16:05:00;26.90;57.80
67817;DHT22;54614;47.576;7.524;2022-10-22T16:07:26;27.20;57.60
67817;DHT22;54614;47.576;7.524;2022-10-22T16:09:58;27.20;57.60
67817;DHT22;54614;47.576;7.524;2022-10-22T16:12:27;27.10;58.70
67817;DHT22;54614;47.576;7.524;2022-10-22T16:14:53;26.90;59.30
67817;DHT22;54614;47.576;7.524;2022-10-22T16:17:18;26.90;59.50
67817;DHT22;54614;47.576;7.524;2022-10-22T16:19:44;26.90;59.40
67817;DHT22;54614;47.576;7.524;2022-10-22T16:22:12;27.10;59.00
67817;DHT22;54614;47.576;7.524;2022-10-22T16:24:38;27.20;58.80
67817;DHT22;54614;47.576;7.524;2022-10-22T16:27:08;27.10;59.20
67817;DHT22;54614;47.576;7.524;2022-10-22T16:29:36;27.00;59.50
67817;DHT22;54614;47.576;7.524;2022-10-22T16:32:03;27.10;59.60
67817;DHT22;54614;47.576;7.524;2022-10-22T16:34:29;27.20;59.30
67817;DHT22;54614;47.576;7.524;2022-10-22T16:36:55;27.20;59.10
67817;DHT22;54614;47.576;7.524;2022-10-22T16:39:21;27.20;59.40
67817;DHT22;54614;47.576;7.524;2022-10-22T16:41:48;27.20;59.60
67817;DHT22;54614;47.576;7.524;2022-10-22T16:44:14;27.00;60.00
67817;DHT22;54614;47.576;7.524;2022-10-22T16:46:40;27.10;60.30
67817;DHT22;54614;47.576;7.524;2022-10-22T16:49:07;27.20;59.90
67817;DHT22;54614;47.576;7.524;2022-10-22T16:51:33;27.20;59.70
67817;DHT22;54614;47.576;7.524;2022-10-22T16:54:00;27.20;59.90
67817;DHT22;54614;47.576;7.524;2022-10-22T16:56:26;27.20;60.40
67817;DHT22;54614;47.576;7.524;2022-10-22T16:58:54;27.10;60.20
67817;DHT22;54614;47.576;7.524;2022-10-22T17:01:23;27.00;60.20
67817;DHT22;54614;47.576;7.524;2022-10-22T17:03:52;27.20;60.30
67817;DHT22;54614;47.576;7.524;2022-10-22T17:06:19;27.20;60.30
67817;DHT22;54614;47.576;7.524;2022-10-22T17:08:46;27.20;59.90
67817;DHT22;54614;47.576;7.524;2022-10-22T17:11:17;27.20;60.00
67817;DHT22;54614;47.576;7.524;2022-10-22T17:13:46;27.20;61.00
67817;DHT22;54614;47.576;7.524;2022-10-22T17:16:15;27.10;60.60
67817;DHT22;54614;47.576;7.524;2022-10-22T17:18:43;27.40;60.00
67817;DHT22;54614;47.576;7.524;2022-10-22T17:21:11;27.30;60.00
67817;DHT22;54614;47.576;7.524;2022-10-22T17:23:37;27.40;59.60
67817;DHT22;54614;47.576;7.524;2022-10-22T17:26:06;27.60;60.00
67817;DHT22;54614;47.576;7.524;2022-10-22T17:28:34;27.50;59.70
67817;DHT22;54614;47.576;7.524;2022-10-22T17:33:34;27.60;60.30
67817;DHT22;54614;47.576;7.524;2022-10-22T17:36:04;27.80;59.80
67817;DHT22;54614;47.576;7.524;2022-10-22T17:38:33;27.90;59.60
67817;DHT22;54614;47.576;7.524;2022-10-22T17:40:59;27.80;60.00
67817;DHT22;54614;47.576;7.524;2022-10-22T17:43:24;27.80;60.10